Terminal Aerodrome Forecast
Issued by NWS Green Bay, WI

Home | Current Version | Previous Version | Graphics & Text | Print | Product List | Glossary On
Versions: 1 2 3 4 5 6 7 8 9 10 11 12 13 14 15 16 17 18 19 20 21 22 23 24 25 26 27 28 29 30 31 32
000
FTUS43 KGRB 071100
TAFGRB
TAF
KGRB 071125Z 0712/0812 28007KT P6SM SKC
     FM071400 28010G18KT P6SM FEW040
     FM071700 27012G20KT P6SM SCT050 BKN100
     FM080000 27009KT 5SM +TSRA OVC035CB
     FM080200 24006KT P6SM -SHRA BKN035
     FM080900 25010KT 6SM -SHRA SCT012 BKN025=

USA.gov is the U.S. government's official web portal to all federal, state and local government web resources and services.